createdAt,value
2022-12-11T00:02:06.906Z,0.70
2022-12-11T00:04:34.940Z,0.70
2022-12-11T00:07:04.296Z,0.80
2022-12-11T00:09:32.306Z,0.80
2022-12-11T00:12:02.315Z,0.80
2022-12-11T00:14:30.361Z,0.80
2022-12-11T00:16:59.589Z,0.80
2022-12-11T00:19:27.588Z,0.80
2022-12-11T00:21:55.555Z,0.70
2022-12-11T00:24:24.825Z,0.70
2022-12-11T00:26:55.563Z,0.80
2022-12-11T00:29:23.462Z,0.80
2022-12-11T00:31:51.460Z,0.80
2022-12-11T00:34:19.477Z,0.80
2022-12-11T00:36:47.538Z,0.80
2022-12-11T00:39:16.763Z,0.80
2022-12-11T00:41:49.020Z,0.80
2022-12-11T00:44:16.952Z,0.80
2022-12-11T00:46:44.920Z,0.80
2022-12-11T00:49:13.954Z,0.80
2022-12-11T00:51:42.217Z,0.80
2022-12-11T00:54:11.971Z,0.80
2022-12-11T00:56:40.413Z,0.80
2022-12-11T00:59:09.710Z,0.70
2022-12-11T01:01:37.675Z,0.70
2022-12-11T01:04:08.190Z,0.70
2022-12-11T01:06:36.146Z,0.60
2022-12-11T01:09:21.582Z,0.60
2022-12-11T01:11:49.547Z,0.60
2022-12-11T01:14:18.867Z,0.60
2022-12-11T01:16:46.936Z,0.60
2022-12-11T01:19:15.280Z,0.60
2022-12-11T01:21:46.167Z,0.60
2022-12-11T01:24:14.113Z,0.70
2022-12-11T01:26:42.129Z,0.70
2022-12-11T01:29:10.061Z,0.70
2022-12-11T01:31:39.403Z,0.70
2022-12-11T01:34:09.975Z,0.70
2022-12-11T01:36:37.978Z,0.70
2022-12-11T01:39:05.967Z,0.60
2022-12-11T01:41:34.071Z,0.60
2022-12-11T01:44:03.789Z,0.60
2022-12-11T01:46:33.130Z,0.60
2022-12-11T01:49:03.532Z,0.60
2022-12-11T01:51:32.765Z,0.60
2022-12-11T01:54:03.089Z,0.60
2022-12-11T01:56:35.051Z,0.60
2022-12-11T01:59:07.175Z,0.60
2022-12-11T02:01:39.014Z,0.60
2022-12-11T02:04:09.404Z,0.60
2022-12-11T02:06:39.068Z,0.60
2022-12-11T02:09:08.828Z,0.60
2022-12-11T02:11:42.985Z,0.60
2022-12-11T02:14:13.849Z,0.60
2022-12-11T02:16:47.329Z,0.60
2022-12-11T02:19:22.217Z,0.60
2022-12-11T02:21:51.844Z,0.30
2022-12-11T02:24:30.171Z,0.50
2022-12-11T02:27:09.843Z,0.50
2022-12-11T02:29:40.102Z,0.50
2022-12-11T02:32:11.705Z,0.60
2022-12-11T02:34:43.951Z,0.60
2022-12-11T02:37:16.391Z,0.60
2022-12-11T02:39:48.159Z,0.60
2022-12-11T02:42:16.905Z,0.60
2022-12-11T02:44:48.697Z,0.60
2022-12-11T02:47:20.317Z,0.60
2022-12-11T02:49:49.388Z,0.60
2022-12-11T02:52:21.159Z,0.60
2022-12-11T02:54:50.006Z,0.60
2022-12-11T02:57:19.997Z,0.60
2022-12-11T02:59:49.579Z,0.60
2022-12-11T03:02:18.812Z,0.60
2022-12-11T03:04:48.432Z,0.60
2022-12-11T03:07:17.426Z,0.60
2022-12-11T03:09:48.567Z,0.50
2022-12-11T03:12:19.101Z,0.50
2022-12-11T03:14:48.053Z,0.40
2022-12-11T03:17:18.350Z,0.40
2022-12-11T03:19:51.224Z,0.40
2022-12-11T03:22:22.079Z,0.50
2022-12-11T03:25:11.881Z,0.40
2022-12-11T03:27:44.844Z,0.50
2022-12-11T03:30:14.848Z,0.40
2022-12-11T03:32:47.373Z,0.40
2022-12-11T03:35:17.709Z,0.40
2022-12-11T03:37:46.435Z,0.40
2022-12-11T03:40:16.131Z,0.40
2022-12-11T03:42:44.690Z,0.40
2022-12-11T03:45:13.456Z,0.40
2022-12-11T03:47:42.563Z,0.40
2022-12-11T03:50:13.018Z,0.40
2022-12-11T03:52:45.734Z,0.40
2022-12-11T03:55:15.402Z,0.30
2022-12-11T03:57:43.592Z,0.30
2022-12-11T04:00:15.819Z,0.30
2022-12-11T04:02:44.472Z,0.30
2022-12-11T04:05:14.017Z,0.30
2022-12-11T04:07:44.670Z,0.30
2022-12-11T04:10:12.678Z,0.30
2022-12-11T04:12:40.608Z,0.30
2022-12-11T04:15:09.223Z,0.20
2022-12-11T04:18:09.070Z,0.20
2022-12-11T04:20:56.166Z,0.20
2022-12-11T04:23:41.465Z,0.10
2022-12-11T04:26:11.406Z,0.20
2022-12-11T04:28:39.528Z,0.20
2022-12-11T04:31:08.009Z,0.10
2022-12-11T04:33:35.959Z,0.10
2022-12-11T04:36:05.588Z,0.10
2022-12-11T04:38:33.517Z,0.10
2022-12-11T04:41:02.186Z,0.10
2022-12-11T04:43:30.181Z,0.10
2022-12-11T04:46:04.964Z,0.10
2022-12-11T04:48:35.812Z,0.10
2022-12-11T04:51:05.702Z,0.10
2022-12-11T04:53:33.645Z,0.10
2022-12-11T04:56:01.698Z,0.00
2022-12-11T04:58:32.553Z,0.00
2022-12-11T05:01:01.911Z,0.00
2022-12-11T05:03:29.903Z,0.00
2022-12-11T05:05:57.899Z,0.00
2022-12-11T05:08:29.650Z,0.00
2022-12-11T05:10:58.361Z,-0.10
2022-12-11T05:13:28.944Z,-0.10
2022-12-11T05:15:57.301Z,-0.10
2022-12-11T05:18:26.783Z,-0.10
2022-12-11T05:20:57.837Z,-0.10
2022-12-11T05:23:29.896Z,-0.20
2022-12-11T05:26:02.786Z,-0.10
2022-12-11T05:28:35.411Z,-0.20
2022-12-11T05:31:04.322Z,-0.10
2022-12-11T05:33:32.622Z,-0.20
2022-12-11T05:36:00.804Z,-0.10
2022-12-11T05:38:30.135Z,-0.20
2022-12-11T05:40:58.854Z,-0.20
2022-12-11T05:43:27.350Z,-0.30
2022-12-11T05:45:58.361Z,-0.30
2022-12-11T05:48:26.297Z,-0.40
2022-12-11T05:50:57.603Z,-0.40
2022-12-11T05:53:26.299Z,-0.40
2022-12-11T05:55:57.792Z,-0.40
2022-12-11T05:58:25.802Z,-0.40
2022-12-11T06:00:56.586Z,-0.40
2022-12-11T06:03:24.566Z,-0.50
2022-12-11T06:05:58.628Z,-0.50
2022-12-11T06:08:26.698Z,-0.40
2022-12-11T06:10:59.509Z,-0.50
2022-12-11T06:13:27.874Z,-0.40
2022-12-11T06:15:55.992Z,-0.50
2022-12-11T06:18:23.974Z,-0.40
2022-12-11T06:20:51.960Z,-0.40
2022-12-11T06:23:19.907Z,-0.40
2022-12-11T06:25:48.009Z,-0.40
2022-12-11T06:28:17.496Z,-0.40
2022-12-11T06:30:45.984Z,0.10
2022-12-11T06:33:22.766Z,-0.40
2022-12-11T06:35:50.731Z,-0.40
2022-12-11T06:38:18.851Z,-0.40
2022-12-11T06:40:46.939Z,-0.40
2022-12-11T06:43:14.879Z,-0.50
2022-12-11T06:45:53.341Z,-0.50
2022-12-11T06:48:21.798Z,-0.50
2022-12-11T06:50:49.764Z,-0.50
2022-12-11T06:53:17.927Z,-0.30
2022-12-11T06:55:45.961Z,-0.50
2022-12-11T06:58:13.879Z,-0.50
2022-12-11T07:00:41.948Z,-0.50
2022-12-11T07:03:13.634Z,-0.50
2022-12-11T07:05:41.611Z,-0.50
2022-12-11T07:08:20.928Z,-0.50
2022-12-11T07:10:49.075Z,-0.50
2022-12-11T07:13:18.498Z,-0.50
2022-12-11T07:15:46.519Z,-0.50
2022-12-11T07:18:14.535Z,-0.50
2022-12-11T07:20:47.630Z,-0.50
2022-12-11T07:23:15.605Z,-0.60
2022-12-11T07:25:45.050Z,-0.60
2022-12-11T07:28:16.640Z,-0.60
2022-12-11T07:30:44.826Z,-0.50
2022-12-11T07:33:13.114Z,-0.50
2022-12-11T07:35:41.075Z,-0.60
2022-12-11T07:38:10.700Z,-0.60
2022-12-11T07:40:45.043Z,-0.50
2022-12-11T07:43:13.031Z,-0.50
2022-12-11T07:45:44.852Z,-0.50
2022-12-11T07:48:12.894Z,-0.50
2022-12-11T07:50:40.861Z,-0.50
2022-12-11T07:53:09.804Z,-0.50
2022-12-11T07:55:37.982Z,0.30
2022-12-11T07:58:08.606Z,-0.40
2022-12-11T08:00:36.574Z,-0.40
2022-12-11T08:03:07.370Z,-0.40
2022-12-11T08:05:50.045Z,-0.40
2022-12-11T08:08:18.407Z,-0.40
2022-12-11T08:10:49.346Z,-0.40
2022-12-11T08:13:20.566Z,-0.40
2022-12-11T08:15:49.055Z,-0.40
2022-12-11T08:18:17.157Z,-0.40
2022-12-11T08:20:45.284Z,-0.40
2022-12-11T08:23:13.262Z,-0.40
2022-12-11T08:25:42.395Z,-0.40
2022-12-11T08:28:10.432Z,-0.40
2022-12-11T08:30:41.056Z,-0.40
2022-12-11T08:33:09.119Z,-0.40
2022-12-11T08:35:39.590Z,-0.40
2022-12-11T08:38:07.632Z,-0.40
2022-12-11T08:40:37.097Z,-0.40
2022-12-11T08:43:05.104Z,-0.40
2022-12-11T08:45:33.052Z,-0.40
2022-12-11T08:48:02.457Z,-0.40
2022-12-11T08:50:30.475Z,-0.40
2022-12-11T08:53:00.655Z,-0.40
2022-12-11T08:55:28.625Z,-0.40
2022-12-11T08:57:56.602Z,-0.40
2022-12-11T09:00:24.656Z,-0.30
2022-12-11T09:02:52.778Z,-0.40
2022-12-11T09:05:24.897Z,-0.40
2022-12-11T09:07:56.038Z,-0.40
2022-12-11T09:10:24.054Z,-0.40
2022-12-11T09:12:51.981Z,-0.40
2022-12-11T09:15:20.031Z,-0.30
2022-12-11T09:17:47.964Z,-0.30
2022-12-11T09:20:16.064Z,-0.30
2022-12-11T09:22:49.897Z,-0.30
2022-12-11T09:25:26.795Z,-0.30
2022-12-11T09:27:54.870Z,-0.30
2022-12-11T09:30:22.934Z,-0.30
2022-12-11T09:32:50.894Z,-0.30
2022-12-11T09:35:19.015Z,-0.40
2022-12-11T09:37:51.398Z,-0.40
2022-12-11T09:40:19.547Z,-0.40
2022-12-11T09:42:54.853Z,-0.40
2022-12-11T09:45:23.078Z,-0.40
2022-12-11T09:47:52.761Z,-0.40
2022-12-11T09:50:22.659Z,-0.40
2022-12-11T09:53:08.268Z,-0.50
2022-12-11T09:55:41.552Z,-0.50
2022-12-11T09:58:15.446Z,-0.50
2022-12-11T10:00:48.093Z,-0.50
2022-12-11T10:03:29.863Z,-0.50
2022-12-11T10:06:05.017Z,-0.50
2022-12-11T10:08:37.630Z,-0.50
2022-12-11T10:11:15.951Z,-0.50
2022-12-11T10:13:49.233Z,-0.50
2022-12-11T10:16:21.258Z,-0.50
2022-12-11T10:18:52.407Z,-0.50
2022-12-11T10:21:20.886Z,-0.50
2022-12-11T10:23:53.518Z,-0.40
2022-12-11T10:26:22.950Z,-0.40
2022-12-11T10:28:50.940Z,-0.40
2022-12-11T10:31:19.539Z,-0.40
2022-12-11T10:33:53.208Z,-0.40
2022-12-11T10:36:23.796Z,-0.40
2022-12-11T10:38:54.424Z,-0.40
2022-12-11T10:41:24.659Z,-0.40
2022-12-11T10:43:56.913Z,-0.40
2022-12-11T10:46:26.302Z,-0.40
2022-12-11T10:48:55.358Z,-0.40
2022-12-11T10:51:23.991Z,-0.40
2022-12-11T10:53:53.910Z,-0.40
2022-12-11T10:56:39.804Z,-0.40
2022-12-11T10:59:08.095Z,-0.40
2022-12-11T11:01:36.677Z,-0.40
2022-12-11T11:04:08.519Z,-0.40
2022-12-11T11:06:37.340Z,-0.50
2022-12-11T11:09:20.247Z,-0.50
2022-12-11T11:11:51.644Z,-0.40
2022-12-11T11:14:20.581Z,-0.40
2022-12-11T11:16:49.806Z,-0.50
2022-12-11T11:19:19.794Z,-0.50
2022-12-11T11:21:50.628Z,-0.50
2022-12-11T11:24:36.582Z,-0.50
2022-12-11T11:27:13.870Z,-0.50
2022-12-11T11:29:42.497Z,-0.50
2022-12-11T11:32:17.396Z,-0.60
2022-12-11T11:34:45.416Z,-0.60
2022-12-11T11:37:23.711Z,-0.60
2022-12-11T11:39:53.858Z,-0.60
2022-12-11T11:42:27.661Z,-0.60
2022-12-11T11:45:03.283Z,-0.60
2022-12-11T11:47:34.363Z,-0.60
2022-12-11T11:50:04.953Z,-0.60
2022-12-11T11:52:35.789Z,-0.60
2022-12-11T11:55:10.256Z,-0.60
2022-12-11T11:57:44.728Z,-0.60
2022-12-11T12:00:18.547Z,-0.60
2022-12-11T12:02:47.054Z,-0.60
2022-12-11T12:05:15.238Z,-0.70
2022-12-11T12:07:52.755Z,-0.60
2022-12-11T12:10:24.553Z,-0.60
2022-12-11T12:12:56.498Z,-0.60
2022-12-11T12:15:33.690Z,-0.60
2022-12-11T12:18:11.085Z,-0.70
2022-12-11T12:20:44.299Z,-0.70
2022-12-11T12:23:25.446Z,-0.70
2022-12-11T12:25:57.135Z,-0.60
2022-12-11T12:28:33.076Z,-0.70
2022-12-11T12:31:10.098Z,-0.70
2022-12-11T12:33:45.944Z,-0.70
2022-12-11T12:36:18.190Z,-0.70
2022-12-11T12:38:52.095Z,-0.80
2022-12-11T12:41:22.707Z,-0.70
2022-12-11T12:44:08.659Z,-0.70
2022-12-11T12:46:45.902Z,-0.70
2022-12-11T12:49:16.623Z,-0.60
2022-12-11T12:51:44.862Z,-0.60
2022-12-11T12:54:15.118Z,-0.60
2022-12-11T12:56:45.105Z,-0.60
2022-12-11T12:59:23.013Z,-0.60
2022-12-11T13:01:55.349Z,-0.50
2022-12-11T13:07:29.668Z,-0.50
2022-12-11T13:09:59.899Z,-0.50
2022-12-11T13:12:33.414Z,-0.40
2022-12-11T13:15:02.072Z,-0.40
2022-12-11T13:17:39.176Z,-0.40
2022-12-11T13:20:16.491Z,-0.40
2022-12-11T13:22:51.617Z,-0.40
2022-12-11T13:25:22.063Z,-0.40
2022-12-11T13:27:50.450Z,-0.40
2022-12-11T13:30:23.460Z,-0.40
2022-12-11T13:32:58.289Z,-0.40
2022-12-11T13:35:26.505Z,-0.30
2022-12-11T13:37:55.399Z,-0.40
2022-12-11T13:40:25.446Z,-0.30
2022-12-11T13:42:55.914Z,-0.30
2022-12-11T13:45:27.900Z,-0.30
2022-12-11T13:47:58.078Z,-0.30
2022-12-11T13:50:27.822Z,-0.30
2022-12-11T13:52:56.303Z,-0.20
2022-12-11T13:55:25.860Z,-0.30
2022-12-11T13:57:53.963Z,-0.20
2022-12-11T14:00:23.553Z,-0.20
2022-12-11T14:02:52.576Z,-0.20
2022-12-11T14:05:22.416Z,-0.20
2022-12-11T14:07:51.750Z,-0.20
2022-12-11T14:10:21.031Z,-0.10
2022-12-11T14:12:52.719Z,-0.10
2022-12-11T14:15:21.019Z,-0.10
2022-12-11T14:17:51.913Z,-0.10
2022-12-11T14:20:21.287Z,-0.10
2022-12-11T14:23:12.345Z,0.00
2022-12-11T14:25:40.351Z,0.00
2022-12-11T14:28:16.637Z,0.00
2022-12-11T14:30:48.071Z,0.00
2022-12-11T14:33:17.716Z,0.00
2022-12-11T14:35:46.419Z,-0.10
2022-12-11T14:38:17.672Z,0.00
2022-12-11T14:40:48.011Z,0.00
2022-12-11T14:43:21.138Z,0.00
2022-12-11T14:45:50.638Z,0.00
2022-12-11T14:48:20.964Z,0.00
2022-12-11T14:50:50.578Z,0.00
2022-12-11T14:53:21.894Z,0.00
2022-12-11T14:55:51.193Z,0.00
2022-12-11T14:58:20.615Z,0.00
2022-12-11T15:00:57.161Z,0.10
2022-12-11T15:03:44.598Z,0.10
2022-12-11T15:06:23.788Z,0.00
2022-12-11T15:08:53.361Z,0.00
2022-12-11T15:11:22.154Z,0.10
2022-12-11T15:13:53.118Z,0.10
2022-12-11T15:16:22.410Z,0.10
2022-12-11T15:18:51.675Z,0.10
2022-12-11T15:21:20.434Z,0.10
2022-12-11T15:23:52.646Z,0.10
2022-12-11T15:26:22.251Z,0.10
2022-12-11T15:28:59.951Z,0.10
2022-12-11T15:31:28.908Z,0.10
2022-12-11T15:33:56.988Z,0.10
2022-12-11T15:36:51.290Z,0.10
2022-12-11T15:39:19.401Z,0.10
2022-12-11T15:41:48.986Z,0.10
2022-12-11T15:44:19.288Z,0.10
2022-12-11T15:46:47.287Z,0.20
2022-12-11T15:49:15.244Z,0.20
2022-12-11T15:51:43.665Z,0.20
2022-12-11T15:54:11.752Z,0.20
2022-12-11T15:56:40.115Z,0.20
2022-12-11T15:59:11.592Z,0.20
2022-12-11T16:01:39.731Z,0.20
2022-12-11T16:04:10.783Z,0.20
2022-12-11T16:06:45.230Z,0.20
2022-12-11T16:09:13.326Z,0.20
2022-12-11T16:11:41.457Z,0.20
2022-12-11T16:14:10.772Z,0.20
2022-12-11T16:16:38.729Z,0.20
2022-12-11T16:19:06.752Z,0.20
2022-12-11T16:21:34.739Z,0.20
2022-12-11T16:24:04.103Z,0.20
2022-12-11T16:26:33.295Z,0.20
2022-12-11T16:29:05.588Z,0.20
2022-12-11T16:31:34.973Z,0.20
2022-12-11T16:34:03.604Z,0.30
2022-12-11T16:36:31.610Z,0.20
2022-12-11T16:38:59.604Z,0.20
2022-12-11T16:41:27.615Z,0.20
2022-12-11T16:43:55.560Z,0.20
2022-12-11T16:46:24.100Z,0.20
2022-12-11T16:48:53.503Z,0.20
2022-12-11T16:51:23.815Z,0.30
2022-12-11T16:53:54.596Z,0.30
2022-12-11T16:56:22.703Z,0.30
2022-12-11T16:58:50.672Z,0.30
2022-12-11T17:01:24.391Z,0.30
2022-12-11T17:03:53.804Z,0.30
2022-12-11T17:06:22.010Z,0.20
2022-12-11T17:08:50.048Z,0.20
2022-12-11T17:11:18.758Z,0.30
2022-12-11T17:13:46.871Z,0.20
2022-12-11T17:16:16.023Z,0.30
2022-12-11T17:18:44.452Z,0.20
2022-12-11T17:21:15.501Z,0.30
2022-12-11T17:23:43.616Z,0.30
2022-12-11T17:26:11.588Z,0.30
2022-12-11T17:28:40.251Z,0.30
2022-12-11T17:31:09.015Z,0.30
2022-12-11T17:33:39.985Z,0.30
2022-12-11T17:36:08.643Z,0.30
2022-12-11T17:38:37.967Z,0.30
2022-12-11T17:41:06.932Z,0.30
2022-12-11T17:43:35.003Z,0.30
2022-12-11T17:46:03.461Z,0.30
2022-12-11T17:48:31.769Z,0.30
2022-12-11T17:51:03.646Z,0.30
2022-12-11T17:53:31.625Z,-0.20
2022-12-11T17:56:02.681Z,0.10
2022-12-11T17:58:31.343Z,0.30
2022-12-11T18:01:00.719Z,0.30
2022-12-11T18:03:29.489Z,0.30
2022-12-11T18:05:58.525Z,0.30
2022-12-11T18:08:30.790Z,0.80
2022-12-11T18:11:05.811Z,0.30
2022-12-11T18:13:35.384Z,0.30
2022-12-11T18:16:04.386Z,0.30
2022-12-11T18:18:32.875Z,0.30
2022-12-11T18:21:06.006Z,0.30
2022-12-11T18:23:34.015Z,0.40
2022-12-11T18:26:04.939Z,0.40
2022-12-11T18:28:33.502Z,0.40
2022-12-11T18:31:03.804Z,0.30
2022-12-11T18:33:37.656Z,0.30
2022-12-11T18:36:06.334Z,0.30
2022-12-11T18:38:36.074Z,0.30
2022-12-11T18:41:09.517Z,0.30
2022-12-11T18:43:37.903Z,0.30
2022-12-11T18:46:08.263Z,0.30
2022-12-11T18:48:36.466Z,0.30
2022-12-11T18:51:14.346Z,0.30
2022-12-11T18:53:45.763Z,0.20
2022-12-11T18:56:14.825Z,0.20
2022-12-11T18:58:43.234Z,0.20
2022-12-11T19:01:17.476Z,0.20
2022-12-11T19:03:45.565Z,0.20
2022-12-11T19:06:14.723Z,0.20
2022-12-11T19:08:42.985Z,0.40
2022-12-11T19:11:14.540Z,0.20
2022-12-11T19:13:43.025Z,0.20
2022-12-11T19:16:22.203Z,0.20
2022-12-11T19:18:50.339Z,0.20
2022-12-11T19:21:19.015Z,0.20
2022-12-11T19:23:52.873Z,0.20
2022-12-11T19:26:21.636Z,0.20
2022-12-11T19:28:50.532Z,0.20
2022-12-11T19:31:20.966Z,0.10
2022-12-11T19:33:49.066Z,0.10
2022-12-11T19:36:18.021Z,0.10
2022-12-11T19:38:46.318Z,0.10
2022-12-11T19:41:18.918Z,0.10
2022-12-11T19:44:00.818Z,0.10
2022-12-11T19:46:30.565Z,0.20
2022-12-11T19:48:59.657Z,0.20
2022-12-11T19:51:29.626Z,0.20
2022-12-11T19:54:02.011Z,0.20
2022-12-11T19:56:30.617Z,0.20
2022-12-11T19:59:00.808Z,0.20
2022-12-11T20:01:34.230Z,0.20
2022-12-11T20:04:03.588Z,0.30
2022-12-11T20:06:32.406Z,0.30
2022-12-11T20:09:01.136Z,0.30
2022-12-11T20:11:29.426Z,-0.40
2022-12-11T20:13:57.510Z,0.30
2022-12-11T20:16:53.294Z,0.20
2022-12-11T20:19:15.431Z,0.20
2022-12-11T20:21:43.471Z,0.20
2022-12-11T20:24:11.772Z,0.10
2022-12-11T20:26:39.768Z,0.10
2022-12-11T20:29:08.509Z,0.10
2022-12-11T20:31:37.148Z,0.10
2022-12-11T20:34:07.846Z,0.10
2022-12-11T20:36:37.279Z,0.10
2022-12-11T20:39:10.273Z,0.10
2022-12-11T20:41:38.328Z,0.10
2022-12-11T20:44:08.905Z,0.10
2022-12-11T20:46:36.934Z,0.10
2022-12-11T20:49:05.086Z,0.10
2022-12-11T20:51:33.096Z,0.10
2022-12-11T20:54:02.469Z,0.10
2022-12-11T20:56:31.222Z,0.00
2022-12-11T20:58:59.947Z,0.00
2022-12-11T21:01:28.728Z,0.00
2022-12-11T21:03:56.814Z,0.00
2022-12-11T21:06:26.293Z,-0.10
2022-12-11T21:08:54.775Z,-0.10
2022-12-11T21:11:24.185Z,-0.10
2022-12-11T21:13:52.434Z,-0.10
2022-12-11T21:16:20.743Z,-0.20
2022-12-11T21:18:49.358Z,-0.20
2022-12-11T21:21:17.680Z,-0.20
2022-12-11T21:23:45.971Z,-0.30
2022-12-11T21:26:13.928Z,-0.30
2022-12-11T21:28:43.452Z,-0.30
2022-12-11T21:31:13.828Z,-0.40
2022-12-11T21:33:41.839Z,-0.40
2022-12-11T21:36:11.632Z,-0.50
2022-12-11T21:38:39.831Z,-0.50
2022-12-11T21:41:08.428Z,-0.50
2022-12-11T21:43:40.023Z,-0.60
2022-12-11T21:46:21.420Z,-0.60
2022-12-11T21:48:50.996Z,-0.60
2022-12-11T21:51:29.774Z,-0.60
2022-12-11T21:54:03.113Z,-0.60
2022-12-11T21:56:35.746Z,-0.70
2022-12-11T21:59:03.769Z,-0.70
2022-12-11T22:01:35.314Z,-0.80
2022-12-11T22:04:04.929Z,-0.80
2022-12-11T22:06:32.898Z,-0.80
2022-12-11T22:09:00.888Z,-0.80
2022-12-11T22:11:30.617Z,-0.80
2022-12-11T22:13:59.063Z,-0.80
2022-12-11T22:16:27.214Z,-0.90
2022-12-11T22:18:59.435Z,-0.90
2022-12-11T22:21:27.430Z,-0.90
2022-12-11T22:23:59.797Z,-0.90
2022-12-11T22:26:28.291Z,-0.90
2022-12-11T22:28:56.821Z,-0.90
2022-12-11T22:31:25.974Z,-0.90
2022-12-11T22:33:55.168Z,-1.00
2022-12-11T22:36:25.386Z,-1.00
2022-12-11T22:38:53.459Z,-1.00
2022-12-11T22:41:24.081Z,-1.00
2022-12-11T22:43:52.927Z,-1.00
2022-12-11T22:46:27.949Z,-1.00
2022-12-11T22:48:56.213Z,-1.10
2022-12-11T22:51:27.917Z,-1.00
2022-12-11T22:53:57.750Z,-1.00
2022-12-11T22:56:26.089Z,-1.00
2022-12-11T22:58:54.086Z,-1.00
2022-12-11T23:01:23.548Z,-1.10
2022-12-11T23:03:52.031Z,-1.00
2022-12-11T23:06:21.332Z,-1.00
2022-12-11T23:08:50.973Z,-1.00
2022-12-11T23:11:24.684Z,-1.00
2022-12-11T23:13:52.896Z,-1.00
2022-12-11T23:16:21.357Z,-1.00
2022-12-11T23:18:49.501Z,-1.00
2022-12-11T23:21:17.639Z,-1.00
2022-12-11T23:23:45.695Z,-1.00
2022-12-11T23:26:15.902Z,-1.00
2022-12-11T23:28:43.913Z,-1.00
2022-12-11T23:31:12.079Z,-1.00
2022-12-11T23:33:40.158Z,-1.00
2022-12-11T23:36:08.802Z,-1.10
2022-12-11T23:38:36.865Z,-1.10
2022-12-11T23:41:06.198Z,-1.10
2022-12-11T23:43:36.491Z,-1.10
2022-12-11T23:46:04.851Z,-1.10
2022-12-11T23:48:32.840Z,-1.10
2022-12-11T23:51:01.244Z,-1.10
2022-12-11T23:53:29.602Z,-1.20
2022-12-11T23:55:59.835Z,-1.20
2022-12-11T23:58:27.804Z,-1.20
